Euro IV — IQNH — position and weather

sailwx.info

Track history (hours):
 
Tides and Currents Weather Stations Pressure Air Temp Water Temp Dewpoint Dewpoint Depression Visibility Wind Speed Wind Dir Waves Ship Positions

Euro IV

Last reported at 2014-Sep-19 16:31 UTC. Time now 2014-Sep-20 16:02 UTC.
Position N 44°06' E 009°50'.

Length 25 m; draft 1.3 m.

Type: Passenger vessel. MMSI: 247131500.

Date/timePositionNaut miles runAvg speedWind from/ knotsBaromVisibWave heightAir tempDewpointWater temp
2014-Sep-19 16:31N 44°06' E 009°50'4 3.8
2014-Sep-19 15:28N 44°06' E 009°44'4 4.8
2014-Sep-19 14:33N 44°09' E 009°39'1 1.0
2014-Sep-19 13:33N 44°08' E 009°40'1 0.8
2014-Sep-19 12:33N 44°09' E 009°39'0 0.0
2014-Sep-19 11:28N 44°09' E 009°39'1 0.8
2014-Sep-19 10:31N 44°08' E 009°40'4 3.3
2014-Sep-19 09:27N 44°06' E 009°44'1 1.3
2014-Sep-19 08:22N 44°07' E 009°43'1 1.4
2014-Sep-19 07:24N 44°06' E 009°44'5 6.6
2014-Sep-19 06:34N 44°04' E 009°51'0 0.0
2014-Sep-18 14:34N 44°03' E 009°51'1 0.8
2014-Sep-18 13:34N 44°03' E 009°50'0 0.0
2014-Sep-18 12:34N 44°03' E 009°50'0 0.0
2014-Sep-18 11:33N 44°03' E 009°50'0 0.0
2014-Sep-18 10:34N 44°03' E 009°50'3 0.9
2014-Sep-18 07:33N 44°06' E 009°50'1 0.0
2014-Sep-17 15:17N 44°06' E 009°50'0 0.0
2014-Sep-17 14:33N 44°06' E 009°50'0 0.0
2014-Sep-17 13:33N 44°06' E 009°50'0 0.0
2014-Sep-17 12:33N 44°06' E 009°50'0 0.0
2014-Sep-17 11:33N 44°06' E 009°50'0 0.0
2014-Sep-17 10:33N 44°06' E 009°50'0 0.0
2014-Sep-17 09:33N 44°06' E 009°50'0 0.0
2014-Sep-17 08:33N 44°06' E 009°50'0 0.0
2014-Sep-17 07:33N 44°06' E 009°50'0 0.0
2014-Sep-16 15:33N 44°06' E 009°50'0 0.0
2014-Sep-16 14:34N 44°06' E 009°50'0 0.0
2014-Sep-16 13:34N 44°06' E 009°50'0 0.0
2014-Sep-16 12:34N 44°06' E 009°50'0 0.0
2014-Sep-16 11:34N 44°06' E 009°50'0 0.0
2014-Sep-16 10:33N 44°06' E 009°50'0 0.0
2014-Sep-16 09:34N 44°06' E 009°50'0 0.0
2014-Sep-16 08:33N 44°06' E 009°50'2 1.7
2014-Sep-16 07:33N 44°05' E 009°51'2 1.7
2014-Sep-16 06:33N 44°06' E 009°50'0 0.0
2014-Sep-15 15:32N 44°06' E 009°50'3 3.2
2014-Sep-15 14:34N 44°03' E 009°50'5 5.2
2014-Sep-15 13:33N 44°05' E 009°44'5 4.4
2014-Sep-15 12:32N 44°09' E 009°39'0 0.0
2014-Sep-15 11:33N 44°09' E 009°39'0 0.0
2014-Sep-15 10:33N 44°09' E 009°39'4 3.7
2014-Sep-15 09:33N 44°06' E 009°43'1 1.0
2014-Sep-15 08:33N 44°05' E 009°44'5 4.7
2014-Sep-15 07:34N 44°06' E 009°50'1 0.8
2014-Sep-15 06:33N 44°06' E 009°50'0 0.0
2014-Sep-14 17:34N 44°06' E 009°50'10 8.1
2014-Sep-14 16:22N 44°09' E 009°37'6 6.4
2014-Sep-14 15:25N 44°06' E 009°44'5 6.1
2014-Sep-14 14:33N 44°03' E 009°50'0 0.0
2014-Sep-14 13:33N 44°03' E 009°50'0 0.0
2014-Sep-14 12:33N 44°03' E 009°50'0 0.0
2014-Sep-14 11:33N 44°03' E 009°50'0 0.0
2014-Sep-14 10:33N 44°03' E 009°50'3 3.4
2014-Sep-14 09:33N 44°04' E 009°55'3 2.8
2014-Sep-14 08:33N 44°03' E 009°51'3 2.8
2014-Sep-14 07:33N 44°04' E 009°55'4 0.2
2014-Sep-13 16:14N 44°06' E 009°50'4 5.4
2014-Sep-13 15:33N 44°04' E 009°54'3 3.1
2014-Sep-13 14:33N 44°03' E 009°51'0 0.3
2014-Sep-13 13:33N 44°03' E 009°50'0 0.1
2014-Sep-13 12:33N 44°03' E 009°50'3 2.9
2014-Sep-13 11:33N 44°06' E 009°50'0 0.1
2014-Sep-13 10:33N 44°06' E 009°50'0 0.5
2014-Sep-13 09:34N 44°06' E 009°50'3 3.0
2014-Sep-13 08:34N 44°03' E 009°51'2 1.8
2014-Sep-13 07:33N 44°02' E 009°51'5 4.6
2014-Sep-13 06:33N 44°06' E 009°49'0 0.0
2014-Sep-12 16:25N 44°06' E 009°49'3 3.3
2014-Sep-12 15:33N 44°04' E 009°48'8 7.5
2014-Sep-12 14:33N 44°08' E 009°40'1 0.9
2014-Sep-12 13:31N 44°08' E 009°41'1 1.3
2014-Sep-12 12:33N 44°07' E 009°41'5 4.6
2014-Sep-12 11:34N 44°04' E 009°46'3 2.9
2014-Sep-12 10:33N 44°03' E 009°50'3 3.1
2014-Sep-12 09:34N 44°06' E 009°50'0 0.0
2014-Sep-12 08:33N 44°06' E 009°50'0 0.2
2014-Sep-12 07:33N 44°06' E 009°50'2 0.0
2014-Sep-10 14:33N 44°05' E 009°51'3 0.8
2014-Sep-10 11:07N 44°04' E 009°55'3 6.1
2014-Sep-10 10:33N 44°03' E 009°50'1 0.5
2014-Sep-10 07:33N 44°05' E 009°51'3 0.2
2014-Sep-09 16:34N 44°05' E 009°54'  
Track history (hours):
 
Tides and Currents Weather Stations Pressure Air Temp Water Temp Dewpoint Dewpoint Depression Visibility Wind Speed Wind Dir Waves Ship Positions

Euro IV

Last reported at 2014-Sep-19 16:31 UTC. Time now 2014-Sep-20 16:02 UTC.
Position N 44°06' E 009°50'.

Length 25 m; draft 1.3 m.

Type: Passenger vessel. MMSI: 247131500.

Date/timePositionNaut miles runAvg speedWind from/ knotsBaromVisibWave heightAir tempDewpointWater temp
2014-Sep-19 16:31N 44°06' E 009°50'4 3.8
2014-Sep-19 15:28N 44°06' E 009°44'4 4.8
2014-Sep-19 14:33N 44°09' E 009°39'1 1.0
2014-Sep-19 13:33N 44°08' E 009°40'1 0.8
2014-Sep-19 12:33N 44°09' E 009°39'0 0.0
2014-Sep-19 11:28N 44°09' E 009°39'1 0.8
2014-Sep-19 10:31N 44°08' E 009°40'4 3.3
2014-Sep-19 09:27N 44°06' E 009°44'1 1.3
2014-Sep-19 08:22N 44°07' E 009°43'1 1.4
2014-Sep-19 07:24N 44°06' E 009°44'5 6.6
2014-Sep-19 06:34N 44°04' E 009°51'0 0.0
2014-Sep-18 14:34N 44°03' E 009°51'1 0.8
2014-Sep-18 13:34N 44°03' E 009°50'0 0.0
2014-Sep-18 12:34N 44°03' E 009°50'0 0.0
2014-Sep-18 11:33N 44°03' E 009°50'0 0.0
2014-Sep-18 10:34N 44°03' E 009°50'3 0.9
2014-Sep-18 07:33N 44°06' E 009°50'1 0.0
2014-Sep-17 15:17N 44°06' E 009°50'0 0.0
2014-Sep-17 14:33N 44°06' E 009°50'0 0.0
2014-Sep-17 13:33N 44°06' E 009°50'0 0.0
2014-Sep-17 12:33N 44°06' E 009°50'0 0.0
2014-Sep-17 11:33N 44°06' E 009°50'0 0.0
2014-Sep-17 10:33N 44°06' E 009°50'0 0.0
2014-Sep-17 09:33N 44°06' E 009°50'0 0.0
2014-Sep-17 08:33N 44°06' E 009°50'0 0.0
2014-Sep-17 07:33N 44°06' E 009°50'0 0.0
2014-Sep-16 15:33N 44°06' E 009°50'0 0.0
2014-Sep-16 14:34N 44°06' E 009°50'0 0.0
2014-Sep-16 13:34N 44°06' E 009°50'0 0.0
2014-Sep-16 12:34N 44°06' E 009°50'0 0.0
2014-Sep-16 11:34N 44°06' E 009°50'0 0.0
2014-Sep-16 10:33N 44°06' E 009°50'0 0.0
2014-Sep-16 09:34N 44°06' E 009°50'0 0.0
2014-Sep-16 08:33N 44°06' E 009°50'2 1.7
2014-Sep-16 07:33N 44°05' E 009°51'2 1.7
2014-Sep-16 06:33N 44°06' E 009°50'0 0.0
2014-Sep-15 15:32N 44°06' E 009°50'3 3.2
2014-Sep-15 14:34N 44°03' E 009°50'5 5.2
2014-Sep-15 13:33N 44°05' E 009°44'5 4.4
2014-Sep-15 12:32N 44°09' E 009°39'0 0.0
2014-Sep-15 11:33N 44°09' E 009°39'0 0.0
2014-Sep-15 10:33N 44°09' E 009°39'4 3.7
2014-Sep-15 09:33N 44°06' E 009°43'1 1.0
2014-Sep-15 08:33N 44°05' E 009°44'5 4.7
2014-Sep-15 07:34N 44°06' E 009°50'1 0.8
2014-Sep-15 06:33N 44°06' E 009°50'0 0.0
2014-Sep-14 17:34N 44°06' E 009°50'10 8.1
2014-Sep-14 16:22N 44°09' E 009°37'6 6.4
2014-Sep-14 15:25N 44°06' E 009°44'5 6.1
2014-Sep-14 14:33N 44°03' E 009°50'0 0.0
2014-Sep-14 13:33N 44°03' E 009°50'0 0.0
2014-Sep-14 12:33N 44°03' E 009°50'0 0.0
2014-Sep-14 11:33N 44°03' E 009°50'0 0.0
2014-Sep-14 10:33N 44°03' E 009°50'3 3.4
2014-Sep-14 09:33N 44°04' E 009°55'3 2.8
2014-Sep-14 08:33N 44°03' E 009°51'3 2.8
2014-Sep-14 07:33N 44°04' E 009°55'4 0.2
2014-Sep-13 16:14N 44°06' E 009°50'4 5.4
2014-Sep-13 15:33N 44°04' E 009°54'3 3.1
2014-Sep-13 14:33N 44°03' E 009°51'0 0.3
2014-Sep-13 13:33N 44°03' E 009°50'0 0.1
2014-Sep-13 12:33N 44°03' E 009°50'3 2.9
2014-Sep-13 11:33N 44°06' E 009°50'0 0.1
2014-Sep-13 10:33N 44°06' E 009°50'0 0.5
2014-Sep-13 09:34N 44°06' E 009°50'3 3.0
2014-Sep-13 08:34N 44°03' E 009°51'2 1.8
2014-Sep-13 07:33N 44°02' E 009°51'5 4.6
2014-Sep-13 06:33N 44°06' E 009°49'0 0.0
2014-Sep-12 16:25N 44°06' E 009°49'3 3.3
2014-Sep-12 15:33N 44°04' E 009°48'8 7.5
2014-Sep-12 14:33N 44°08' E 009°40'1 0.9
2014-Sep-12 13:31N 44°08' E 009°41'1 1.3
2014-Sep-12 12:33N 44°07' E 009°41'5 4.6
2014-Sep-12 11:34N 44°04' E 009°46'3 2.9
2014-Sep-12 10:33N 44°03' E 009°50'3 3.1
2014-Sep-12 09:34N 44°06' E 009°50'0 0.0
2014-Sep-12 08:33N 44°06' E 009°50'0 0.2
2014-Sep-12 07:33N 44°06' E 009°50'2 0.0
2014-Sep-10 14:33N 44°05' E 009°51'3 0.8
2014-Sep-10 11:07N 44°04' E 009°55'3 6.1
2014-Sep-10 10:33N 44°03' E 009°50'1 0.5
2014-Sep-10 07:33N 44°05' E 009°51'3 0.2
2014-Sep-09 16:34N 44°05' E 009°54'  

Dump ship's entire track history